الصفحة الرئيسية
METAR-TAF:

METAR-TAF

مطار :

نيودلهي, الهند

مطار انديرا غاندي الدولي

دائرة عرض: 28-34N, خط طول: 077-07E, ارتفاع: 220 متر

مراقبة الطقس الحالي

تاريخ ووقت الإصدار 43 دقيقة قبل الساعة 15:30UTC
ريح 7 عقدة من الغرب
درجة الحرارة 30°درجة مئوية
الرطوبة 18%
ضغط 1010 hPa
الرؤية: 4000 متر
العجاج

METAR: VIDP 221530Z 28007KT 4000 HZ NSC 30/03 Q1010 NOSIG

زمن: 21:43 (16:13 UTC)

توقعات

تاريخ ووقت الإصدار 5ساعات و 13 دقيقة قبل الساعة 11:00UTC
التوقعات صالحة من22 الساعة 12 UTC إلى 23 الساعة 18 UTC
ريح 10 عقدة من الغرب/الشمال الغربي تتزايد حتى 20 عقدة
الرؤية: 4000 متر
العجاج
أصبح
من 22 الساعة 16 UTC إلى 22 الساعة 18 UTC
ريح 8 عقدة من الغرب/الشمال الغربي
الرؤية: 2500 متر
العجاج
أصبح
من 23 الساعة 06 UTC إلى 23 الساعة 08 UTC
ريح 10 عقدة من الغرب/الشمال الغربي تتزايد حتى 20 عقدة
الرؤية: 3500 متر
هبوب الغبار
أصبح
من 23 الساعة 12 UTC إلى 23 الساعة 15 UTC
ريح 8 عقدة من الغرب/الشمال الغربي
الرؤية: 2500 متر
العجاج

TAF: VIDP 221100Z 2212/2318 30010G20KT 4000 HZ NSC BECMG 2216/2218 29008KT 2500 HZ BECMG 2306/2308 30010G20KT 3500 BLDU BECMG 2312/2315 29008KT 2500 HZ

أرصاد الطقس والتوقعات من أكثر من 4000 مطار (تقارير الطقس للمطار METAR والتنبؤ بالطقس بالمطارTAF).

المحطات المتاحة هي النقط الصفراء والحمراء على الخريطة.

حرك المؤشر فوق النقطة لمعرفة اسم المحطة.

ثم انقر لمعرفة أرصاد وتوقعات الطقس.

لتغيير الخارطة: اضغط على الأزرار الخضراء مع رمز الصليب الأسود للتكبير. على الزر الأخضر مع شرطة للتصغير، أو على الأسهم الخضراء للخرائط المجاورة.


METAR-TAF: